Terminal Aerodrome Forecast
Issued by NWS Huntsville, AL

Home | Current Version | Previous Version | Text Only | Print | Product List | Glossary On
Versions: 1 2 3 4 5 6 7 8 9 10 11 12 13
000
FTUS44 KHUN 202320
TAFMSL
TAF
KMSL 202320Z 2100/2124 18006KT P6SM SCT090
     FM210700 17007KT P6SM SCT030 BKN060
     FM211700 17010KT P6SM SCT060=

USA.gov is the U.S. government's official web portal to all federal, state and local government web resources and services.